createdAt,value
2022-09-06T00:01:10.830Z,46.15
2022-09-06T00:03:39.392Z,45.54
2022-09-06T00:06:08.892Z,45.66
2022-09-06T00:08:36.437Z,45.38
2022-09-06T00:11:04.004Z,45.65
2022-09-06T00:13:31.708Z,44.92
2022-09-06T00:16:07.800Z,45.24
2022-09-06T00:18:35.679Z,45.95
2022-09-06T00:21:04.405Z,45.76
2022-09-06T00:23:31.934Z,46.97
2022-09-06T00:26:04.029Z,47.71
2022-09-06T00:28:31.592Z,46.53
2022-09-06T00:30:59.161Z,46.32
2022-09-06T00:33:28.095Z,46.57
2022-09-06T00:36:01.233Z,45.54
2022-09-06T00:38:28.844Z,46.16
2022-09-06T00:40:57.232Z,45.65
2022-09-06T00:43:24.943Z,45.48
2022-09-06T00:45:54.213Z,45.22
2022-09-06T00:48:22.880Z,45.63
2022-09-06T00:50:54.893Z,46.10
2022-09-06T00:53:22.776Z,45.35
2022-09-06T00:55:50.521Z,45.98
2022-09-06T00:58:18.106Z,46.89
2022-09-06T01:00:45.860Z,45.48
2022-09-06T01:03:13.841Z,45.71
2022-09-06T01:05:53.908Z,46.51
2022-09-06T01:08:37.206Z,45.76
2022-09-06T01:11:23.388Z,44.58
2022-09-06T01:14:01.013Z,46.70
2022-09-06T01:16:37.138Z,46.17
2022-09-06T01:19:31.915Z,45.50
2022-09-06T01:22:15.306Z,44.59
2022-09-06T01:25:05.169Z,43.92
2022-09-06T01:28:03.711Z,43.46
2022-09-06T01:30:36.568Z,43.02
2022-09-06T01:33:13.681Z,42.67
2022-09-06T01:35:45.556Z,42.48
2022-09-06T01:38:14.169Z,42.53
2022-09-06T01:40:41.729Z,42.40
2022-09-06T01:43:14.595Z,41.94
2022-09-06T01:45:52.940Z,41.99
2022-09-06T01:48:31.138Z,42.41
2022-09-06T01:51:09.291Z,42.64
2022-09-06T01:54:15.829Z,42.95
2022-09-06T01:56:54.822Z,42.34
2022-09-06T01:59:41.745Z,42.20
2022-09-06T02:02:15.004Z,42.14
2022-09-06T02:04:46.989Z,42.42
2022-09-06T02:07:21.044Z,42.62
2022-09-06T02:09:52.313Z,43.42
2022-09-06T02:12:22.302Z,43.90
2022-09-06T02:14:56.922Z,44.15
2022-09-06T02:17:28.910Z,44.82
2022-09-06T02:20:00.828Z,44.75
2022-09-06T02:22:33.266Z,45.00
2022-09-06T02:25:02.052Z,44.97
2022-09-06T02:27:31.104Z,46.29
2022-09-06T02:30:02.827Z,45.70
2022-09-06T02:32:31.936Z,46.71
2022-09-06T02:34:59.616Z,46.13
2022-09-06T02:37:28.065Z,46.41
2022-09-06T02:39:56.114Z,46.69
2022-09-06T02:42:25.535Z,46.07
2022-09-06T02:44:53.131Z,46.13
2022-09-06T02:47:22.035Z,46.47
2022-09-06T02:49:49.562Z,46.42
2022-09-06T02:52:17.447Z,47.20
2022-09-06T02:54:45.197Z,47.18
2022-09-06T02:57:12.822Z,48.02
2022-09-06T02:59:40.505Z,48.45
2022-09-06T03:02:08.127Z,48.79
2022-09-06T03:04:37.020Z,48.51
2022-09-06T03:07:04.864Z,48.71
2022-09-06T03:09:32.441Z,49.20
2022-09-06T03:12:00.028Z,49.34
2022-09-06T03:14:30.210Z,49.40
2022-09-06T03:16:57.882Z,50.18
2022-09-06T03:19:25.457Z,50.14
2022-09-06T03:21:54.966Z,50.71
2022-09-06T03:24:22.485Z,51.07
2022-09-06T03:26:50.309Z,51.09
2022-09-06T03:29:17.823Z,50.65
2022-09-06T03:31:45.363Z,51.20
2022-09-06T03:34:12.914Z,51.52
2022-09-06T03:36:40.482Z,50.96
2022-09-06T03:39:09.396Z,51.00
2022-09-06T03:41:38.145Z,50.82
2022-09-06T03:44:05.961Z,52.26
2022-09-06T03:46:33.723Z,51.95
2022-09-06T03:49:01.918Z,51.48
2022-09-06T03:51:29.471Z,51.19
2022-09-06T03:53:57.656Z,53.27
2022-09-06T03:56:27.181Z,52.34
2022-09-06T03:58:54.856Z,51.68
2022-09-06T04:01:22.517Z,51.80
2022-09-06T04:03:50.221Z,51.06
2022-09-06T04:06:17.886Z,51.24
2022-09-06T04:08:45.428Z,51.24
2022-09-06T04:11:13.030Z,51.42
2022-09-06T04:13:42.011Z,51.74
2022-09-06T04:16:09.610Z,52.04
2022-09-06T04:18:37.504Z,51.55
2022-09-06T04:21:06.082Z,51.45
2022-09-06T04:23:39.156Z,51.57
2022-09-06T04:26:07.587Z,51.01
2022-09-06T04:28:35.371Z,50.56
2022-09-06T04:31:05.570Z,50.73
2022-09-06T04:33:34.855Z,50.60
2022-09-06T04:36:04.388Z,50.77
2022-09-06T04:38:36.010Z,51.20
2022-09-06T04:41:03.615Z,51.14
2022-09-06T04:43:31.127Z,50.99
2022-09-06T04:46:05.881Z,51.45
2022-09-06T04:48:35.469Z,51.36
2022-09-06T04:51:03.082Z,51.07
2022-09-06T04:53:30.634Z,51.25
2022-09-06T04:55:58.908Z,51.17
2022-09-06T04:58:26.662Z,51.30
2022-09-06T05:00:54.870Z,51.73
2022-09-06T05:03:23.794Z,50.89
2022-09-06T05:05:51.386Z,51.55
2022-09-06T05:08:18.947Z,51.57
2022-09-06T05:10:46.515Z,51.67
2022-09-06T05:13:14.116Z,51.37
2022-09-06T05:15:41.706Z,51.02
2022-09-06T05:18:12.917Z,51.49
2022-09-06T05:20:44.923Z,51.23
2022-09-06T05:23:12.448Z,51.49
2022-09-06T05:25:40.015Z,51.74
2022-09-06T05:28:07.575Z,51.72
2022-09-06T05:30:35.124Z,52.24
2022-09-06T05:33:02.685Z,53.36
2022-09-06T05:35:30.267Z,52.79
2022-09-06T05:37:59.120Z,52.95
2022-09-06T05:40:26.672Z,52.53
2022-09-06T05:42:54.218Z,53.16
2022-09-06T05:45:21.946Z,53.61
2022-09-06T05:47:49.543Z,54.30
2022-09-06T05:50:17.330Z,53.60
2022-09-06T05:52:44.869Z,52.36
2022-09-06T05:55:14.110Z,52.64
2022-09-06T05:57:41.666Z,52.86
2022-09-06T06:00:12.065Z,52.32
2022-09-06T06:02:40.587Z,52.24
2022-09-06T06:05:09.142Z,52.09
2022-09-06T06:07:36.737Z,52.23
2022-09-06T06:10:05.026Z,52.31
2022-09-06T06:12:34.024Z,52.49
2022-09-06T06:15:01.590Z,52.33
2022-09-06T06:17:29.465Z,52.45
2022-09-06T06:19:58.227Z,52.31
2022-09-06T06:22:25.797Z,51.94
2022-09-06T06:24:53.310Z,51.65
2022-09-06T06:27:20.885Z,51.92
2022-09-06T06:29:50.442Z,52.10
2022-09-06T06:32:17.982Z,52.09
2022-09-06T06:34:45.526Z,51.86
2022-09-06T06:37:13.073Z,51.65
2022-09-06T06:39:40.883Z,51.77
2022-09-06T06:42:09.101Z,50.32
2022-09-06T06:44:36.661Z,51.16
2022-09-06T06:47:05.744Z,50.93
2022-09-06T06:49:33.310Z,50.23
2022-09-06T06:52:00.842Z,50.01
2022-09-06T06:54:32.097Z,49.82
2022-09-06T06:56:59.623Z,49.52
2022-09-06T06:59:27.162Z,49.77
2022-09-06T07:01:54.781Z,49.41
2022-09-06T07:04:24.027Z,49.33
2022-09-06T07:12:29.061Z,48.97
2022-09-06T07:14:56.817Z,48.95
2022-09-06T07:17:24.371Z,48.43
2022-09-06T07:22:41.559Z,48.33
2022-09-06T07:25:12.175Z,48.37
2022-09-06T07:27:48.873Z,48.07
2022-09-06T07:30:17.425Z,48.09
2022-09-06T07:32:45.018Z,48.06
2022-09-06T07:35:14.351Z,47.66
2022-09-06T07:37:42.146Z,47.66
2022-09-06T07:40:11.222Z,47.20
2022-09-06T07:42:38.984Z,47.04
2022-09-06T07:45:07.363Z,46.76
2022-09-06T07:53:15.486Z,46.67
2022-09-06T07:55:47.103Z,46.48
2022-09-06T07:58:15.212Z,46.16
2022-09-06T08:00:42.928Z,45.63
2022-09-06T08:03:10.610Z,45.88
2022-09-06T08:11:15.254Z,45.36
2022-09-06T08:13:43.314Z,45.02
2022-09-06T08:16:12.591Z,44.67
2022-09-06T08:18:40.264Z,44.43
2022-09-06T08:21:12.868Z,43.90
2022-09-06T08:23:42.636Z,44.03
2022-09-06T08:26:10.255Z,44.65
2022-09-06T08:28:38.123Z,44.45
2022-09-06T08:31:10.244Z,43.88
2022-09-06T08:33:38.705Z,43.83
2022-09-06T08:36:07.223Z,44.00
2022-09-06T08:38:36.354Z,43.70
2022-09-06T08:41:10.024Z,44.10
2022-09-06T08:43:38.638Z,43.59
2022-09-06T08:46:08.803Z,43.52
2022-09-06T08:48:39.840Z,43.43
2022-09-06T08:51:38.543Z,43.00
2022-09-06T08:54:16.196Z,42.98
2022-09-06T08:56:55.043Z,42.78
2022-09-06T08:59:23.190Z,42.69
2022-09-06T09:02:02.680Z,43.08
2022-09-06T09:04:32.648Z,42.25
2022-09-06T09:07:11.412Z,41.97
2022-09-06T09:09:40.364Z,41.71
2022-09-06T09:12:09.703Z,41.50
2022-09-06T09:14:40.304Z,41.04
2022-09-06T09:17:16.762Z,41.27
2022-09-06T09:19:44.372Z,40.93
2022-09-06T09:22:13.547Z,40.51
2022-09-06T09:24:42.624Z,40.31
2022-09-06T09:27:13.293Z,39.94
2022-09-06T09:32:49.469Z,39.96
2022-09-06T09:35:20.703Z,39.04
2022-09-06T09:37:51.250Z,39.51
2022-09-06T09:40:34.844Z,39.20
2022-09-06T09:43:15.473Z,39.11
2022-09-06T09:45:43.872Z,38.87
2022-09-06T09:48:26.930Z,39.05
2022-09-06T09:50:55.550Z,38.95
2022-09-06T09:53:26.022Z,39.23
2022-09-06T09:55:59.896Z,38.41
2022-09-06T09:58:33.145Z,39.32
2022-09-06T10:01:12.106Z,39.37
2022-09-06T10:09:20.024Z,38.20
2022-09-06T10:11:55.822Z,38.32
2022-09-06T10:14:29.228Z,38.07
2022-09-06T10:16:58.057Z,37.92
2022-09-06T10:19:41.942Z,37.82
2022-09-06T10:22:21.677Z,37.74
2022-09-06T10:25:08.298Z,37.63
2022-09-06T10:27:55.440Z,36.87
2022-09-06T10:30:31.484Z,37.57
2022-09-06T10:33:06.457Z,37.30
2022-09-06T10:35:38.734Z,37.43
2022-09-06T10:38:20.743Z,37.27
2022-09-06T10:40:58.964Z,37.34
2022-09-06T10:43:35.951Z,37.23
2022-09-06T10:46:08.986Z,36.69
2022-09-06T10:48:41.989Z,37.08
2022-09-06T10:51:18.970Z,36.21
2022-09-06T10:53:50.540Z,36.74
2022-09-06T10:56:23.451Z,36.83
2022-09-06T11:01:52.076Z,36.34
2022-09-06T11:04:27.971Z,35.33
2022-09-06T11:07:00.086Z,35.92
2022-09-06T11:09:33.047Z,35.70
2022-09-06T11:12:09.310Z,35.44
2022-09-06T11:14:39.800Z,35.38
2022-09-06T11:17:13.893Z,34.58
2022-09-06T11:19:47.848Z,35.29
2022-09-06T11:22:29.404Z,35.09
2022-09-06T11:25:19.898Z,35.13
2022-09-06T11:27:57.843Z,34.57
2022-09-06T11:30:28.325Z,34.53
2022-09-06T11:33:10.992Z,34.77
2022-09-06T11:35:41.410Z,34.52
2022-09-06T11:38:21.518Z,34.73
2022-09-06T11:40:53.132Z,34.53
2022-09-06T11:43:44.977Z,35.01
2022-09-06T11:46:52.322Z,34.06
2022-09-06T11:49:34.513Z,34.10
2022-09-06T11:52:03.577Z,34.39
2022-09-06T11:54:44.014Z,33.69
2022-09-06T11:57:17.581Z,34.25
2022-09-06T11:59:56.596Z,34.58
2022-09-06T12:02:36.368Z,33.77
2022-09-06T12:05:29.130Z,33.60
2022-09-06T12:08:30.149Z,33.42
2022-09-06T12:11:07.070Z,32.75
2022-09-06T12:13:48.606Z,33.60
2022-09-06T12:16:17.718Z,32.90
2022-09-06T12:19:01.225Z,32.64
2022-09-06T12:21:46.000Z,32.65
2022-09-06T12:24:47.214Z,32.86
2022-09-06T12:27:17.144Z,33.49
2022-09-06T12:29:58.002Z,33.15
2022-09-06T12:32:31.643Z,32.38
2022-09-06T12:37:57.008Z,32.56
2022-09-06T12:40:26.935Z,32.78
2022-09-06T12:42:55.327Z,32.46
2022-09-06T12:45:27.396Z,33.55
2022-09-06T12:48:06.286Z,32.40
2022-09-06T12:50:35.619Z,33.01
2022-09-06T12:53:05.206Z,32.43
2022-09-06T12:55:35.630Z,33.46
2022-09-06T12:58:05.490Z,32.88
2022-09-06T13:00:37.729Z,32.08
2022-09-06T13:03:20.488Z,32.14
2022-09-06T13:05:49.615Z,32.96
2022-09-06T13:08:25.915Z,33.02
2022-09-06T13:10:53.951Z,33.08
2022-09-06T13:13:24.652Z,32.49
2022-09-06T13:15:52.978Z,31.91
2022-09-06T13:18:23.429Z,31.72
2022-09-06T13:21:06.583Z,32.09
2022-09-06T13:23:42.305Z,32.33
2022-09-06T13:26:10.044Z,31.65
2022-09-06T13:28:38.516Z,31.78
2022-09-06T13:31:12.937Z,31.43
2022-09-06T13:33:41.937Z,31.52
2022-09-06T13:36:22.349Z,31.80
2022-09-06T13:38:50.708Z,31.65
2022-09-06T13:41:37.870Z,31.97
2022-09-06T13:44:07.888Z,31.95
2022-09-06T13:46:37.043Z,31.44
2022-09-06T13:49:05.609Z,31.72
2022-09-06T13:51:35.272Z,32.35
2022-09-06T13:54:08.041Z,33.00
2022-09-06T13:56:35.783Z,32.58
2022-09-06T13:59:04.270Z,32.79
2022-09-06T14:01:33.702Z,33.65
2022-09-06T14:04:01.330Z,34.14
2022-09-06T14:06:29.069Z,32.33
2022-09-06T14:09:07.779Z,32.85
2022-09-06T14:11:36.442Z,33.05
2022-09-06T14:14:06.606Z,32.66
2022-09-06T14:16:34.756Z,32.57
2022-09-06T14:19:02.388Z,32.98
2022-09-06T14:21:30.086Z,32.13
2022-09-06T14:24:03.844Z,32.95
2022-09-06T14:26:31.677Z,32.99
2022-09-06T14:28:59.221Z,33.24
2022-09-06T14:31:28.893Z,32.96
2022-09-06T14:33:57.900Z,33.82
2022-09-06T14:36:27.269Z,32.08
2022-09-06T14:38:54.827Z,33.91
2022-09-06T14:41:23.754Z,33.21
2022-09-06T14:43:54.349Z,32.64
2022-09-06T14:46:23.334Z,31.87
2022-09-06T14:48:57.498Z,31.13
2022-09-06T14:51:25.064Z,32.25
2022-09-06T14:53:54.952Z,33.08
2022-09-06T14:56:24.224Z,32.35
2022-09-06T14:58:51.837Z,31.05
2022-09-06T15:01:21.880Z,32.05
2022-09-06T15:03:51.645Z,32.22
2022-09-06T15:06:21.062Z,31.34
2022-09-06T15:08:48.856Z,30.75
2022-09-06T15:11:30.075Z,30.35
2022-09-06T15:13:59.340Z,31.74
2022-09-06T15:16:27.315Z,31.00
2022-09-06T15:18:55.290Z,29.64
2022-09-06T15:21:23.782Z,31.71
2022-09-06T15:23:52.565Z,31.35
2022-09-06T15:26:21.485Z,31.82
2022-09-06T15:28:49.102Z,30.31
2022-09-06T15:31:19.450Z,30.75
2022-09-06T15:33:48.704Z,31.13
2022-09-06T15:36:16.559Z,31.08
2022-09-06T15:38:47.286Z,31.23
2022-09-06T15:41:16.673Z,31.03
2022-09-06T15:43:47.122Z,30.33
2022-09-06T15:46:15.805Z,31.88
2022-09-06T15:48:46.255Z,32.03
2022-09-06T15:51:15.824Z,32.44
2022-09-06T15:53:43.770Z,32.00
2022-09-06T15:56:15.477Z,31.63
2022-09-06T15:58:43.105Z,32.16
2022-09-06T16:01:12.421Z,32.26
2022-09-06T16:03:41.912Z,32.33
2022-09-06T16:06:28.647Z,33.30
2022-09-06T16:08:59.410Z,31.81
2022-09-06T16:11:27.965Z,32.90
2022-09-06T16:13:56.150Z,32.62
2022-09-06T16:16:24.057Z,32.53
2022-09-06T16:18:52.965Z,33.02
2022-09-06T16:21:24.446Z,31.92
2022-09-06T16:23:54.467Z,33.51
2022-09-06T16:26:22.985Z,32.38
2022-09-06T16:28:51.849Z,33.13
2022-09-06T16:31:20.582Z,33.78
2022-09-06T16:33:48.826Z,34.55
2022-09-06T16:36:17.465Z,33.13
2022-09-06T16:38:47.161Z,34.36
2022-09-06T16:41:18.178Z,35.20
2022-09-06T16:43:47.340Z,34.49
2022-09-06T16:46:15.082Z,34.65
2022-09-06T16:48:42.886Z,34.81
2022-09-06T16:51:15.285Z,34.74
2022-09-06T16:53:44.506Z,34.78
2022-09-06T16:56:15.647Z,35.32
2022-09-06T16:58:43.788Z,34.52
2022-09-06T17:01:12.111Z,35.77
2022-09-06T17:03:40.383Z,35.47
2022-09-06T17:06:09.206Z,35.51
2022-09-06T17:08:37.414Z,36.31
2022-09-06T17:11:07.044Z,36.28
2022-09-06T17:13:36.915Z,37.22
2022-09-06T17:16:23.141Z,36.77
2022-09-06T17:18:53.481Z,37.58
2022-09-06T17:21:21.575Z,38.11
2022-09-06T17:23:50.270Z,38.01
2022-09-06T17:26:19.685Z,38.73
2022-09-06T17:28:49.322Z,38.60
2022-09-06T17:31:21.018Z,38.98
2022-09-06T17:33:51.379Z,39.19
2022-09-06T17:36:21.176Z,38.96
2022-09-06T17:38:53.334Z,38.80
2022-09-06T17:41:24.097Z,39.43
2022-09-06T17:43:53.978Z,39.46
2022-09-06T17:46:25.238Z,39.65
2022-09-06T17:48:55.854Z,40.31
2022-09-06T17:51:23.477Z,39.82
2022-09-06T17:53:51.488Z,40.30
2022-09-06T17:56:19.797Z,40.02
2022-09-06T17:58:54.977Z,40.84
2022-09-06T18:01:24.387Z,40.64
2022-09-06T18:03:52.406Z,40.63
2022-09-06T18:06:23.415Z,40.74
2022-09-06T18:08:53.007Z,41.57
2022-09-06T18:11:22.773Z,41.09
2022-09-06T18:13:57.698Z,41.10
2022-09-06T18:16:26.546Z,41.77
2022-09-06T18:18:55.862Z,42.29
2022-09-06T18:21:24.889Z,42.25
2022-09-06T18:23:52.621Z,42.52
2022-09-06T18:26:20.180Z,42.67
2022-09-06T18:28:47.999Z,42.73
2022-09-06T18:31:21.980Z,42.56
2022-09-06T18:33:49.960Z,42.82
2022-09-06T18:36:19.385Z,43.42
2022-09-06T18:38:47.294Z,42.50
2022-09-06T18:41:30.555Z,42.62
2022-09-06T18:44:00.387Z,42.52
2022-09-06T18:46:29.755Z,42.43
2022-09-06T18:48:57.375Z,42.55
2022-09-06T18:51:25.183Z,43.55
2022-09-06T18:53:53.062Z,43.08
2022-09-06T18:56:20.984Z,42.59
2022-09-06T18:58:48.898Z,42.79
2022-09-06T19:01:19.513Z,42.84
2022-09-06T19:03:48.567Z,42.67
2022-09-06T19:06:18.704Z,42.81
2022-09-06T19:08:47.461Z,44.22
2022-09-06T19:11:17.635Z,43.04
2022-09-06T19:13:46.953Z,43.43
2022-09-06T19:16:15.453Z,43.94
2022-09-06T19:18:43.174Z,43.08
2022-09-06T19:21:14.236Z,43.07
2022-09-06T19:23:44.019Z,43.13
2022-09-06T19:26:14.526Z,43.12
2022-09-06T19:28:42.197Z,43.67
2022-09-06T19:31:15.548Z,42.45
2022-09-06T19:33:44.438Z,42.94
2022-09-06T19:36:14.122Z,42.09
2022-09-06T19:39:01.852Z,42.71
2022-09-06T19:41:30.956Z,42.10
2022-09-06T19:44:00.095Z,42.85
2022-09-06T19:46:28.341Z,42.80
2022-09-06T19:48:56.813Z,41.65
2022-09-06T19:51:25.871Z,42.13
2022-09-06T19:53:55.075Z,42.49
2022-09-06T19:56:24.223Z,42.21
2022-09-06T19:58:55.509Z,41.66
2022-09-06T20:01:23.612Z,41.68
2022-09-06T20:03:51.437Z,40.59
2022-09-06T20:06:19.077Z,42.29
2022-09-06T20:08:50.844Z,41.64
2022-09-06T20:11:19.290Z,39.57
2022-09-06T20:13:47.101Z,39.36
2022-09-06T20:16:15.713Z,39.39
2022-09-06T20:18:43.344Z,39.40
2022-09-06T20:21:13.752Z,39.47
2022-09-06T20:23:41.942Z,39.64
2022-09-06T20:26:13.432Z,38.85
2022-09-06T20:28:40.978Z,39.18
2022-09-06T20:31:10.744Z,38.88
2022-09-06T20:33:39.362Z,39.02
2022-09-06T20:36:08.901Z,38.71
2022-09-06T20:38:37.970Z,39.20
2022-09-06T20:41:07.824Z,38.86
2022-09-06T20:43:37.758Z,38.79
2022-09-06T20:46:10.668Z,38.50
2022-09-06T20:48:43.629Z,38.76
2022-09-06T20:51:14.804Z,39.01
2022-09-06T20:53:42.885Z,39.15
2022-09-06T20:56:12.214Z,39.66
2022-09-06T20:58:41.945Z,39.79
2022-09-06T21:01:11.635Z,39.77
2022-09-06T21:03:41.038Z,40.12
2022-09-06T21:06:09.494Z,40.16
2022-09-06T21:08:42.381Z,40.58
2022-09-06T21:11:11.636Z,40.27
2022-09-06T21:13:39.538Z,40.56
2022-09-06T21:16:08.874Z,40.42
2022-09-06T21:18:37.023Z,40.47
2022-09-06T21:21:06.968Z,40.62
2022-09-06T21:23:36.344Z,40.37
2022-09-06T21:26:06.047Z,40.63
2022-09-06T21:28:36.529Z,40.64
2022-09-06T21:31:07.993Z,40.53
2022-09-06T21:33:39.112Z,40.62
2022-09-06T21:36:08.912Z,40.35
2022-09-06T21:38:38.277Z,40.94
2022-09-06T21:41:07.801Z,40.52
2022-09-06T21:43:35.838Z,40.63
2022-09-06T21:46:04.006Z,40.50
2022-09-06T21:48:31.978Z,40.58
2022-09-06T21:51:00.985Z,40.29
2022-09-06T21:53:28.530Z,40.63
2022-09-06T21:56:00.905Z,40.32
2022-09-06T21:58:28.537Z,40.66
2022-09-06T22:00:59.157Z,40.68
2022-09-06T22:03:27.310Z,40.93
2022-09-06T22:05:55.079Z,41.00
2022-09-06T22:08:24.569Z,41.06
2022-09-06T22:10:52.629Z,40.54
2022-09-06T22:13:21.388Z,40.99
2022-09-06T22:15:49.177Z,40.76
2022-09-06T22:18:16.753Z,41.28
2022-09-06T22:20:44.266Z,41.17
2022-09-06T22:23:11.879Z,41.52
2022-09-06T22:25:42.818Z,41.74
2022-09-06T22:28:10.952Z,42.14
2022-09-06T22:30:38.498Z,41.69
2022-09-06T22:33:06.034Z,41.95
2022-09-06T22:35:33.570Z,41.55
2022-09-06T22:38:01.254Z,41.43
2022-09-06T22:40:28.826Z,41.15
2022-09-06T22:42:57.696Z,41.25
2022-09-06T22:45:25.205Z,41.62
2022-09-06T22:47:53.730Z,41.38
2022-09-06T22:50:21.293Z,41.44
2022-09-06T22:52:48.847Z,41.75
2022-09-06T22:55:17.123Z,41.34
2022-09-06T22:57:44.706Z,41.48
2022-09-06T23:00:15.771Z,41.70
2022-09-06T23:02:43.304Z,41.72
2022-09-06T23:05:10.866Z,41.33
2022-09-06T23:07:38.422Z,41.46
2022-09-06T23:10:06.969Z,41.60
2022-09-06T23:12:34.527Z,41.95
2022-09-06T23:15:02.085Z,41.50
2022-09-06T23:17:31.392Z,41.47
2022-09-06T23:19:58.928Z,41.42
2022-09-06T23:22:26.575Z,42.17
2022-09-06T23:24:54.124Z,42.03
2022-09-06T23:27:22.214Z,42.05
2022-09-06T23:29:49.765Z,42.19
2022-09-06T23:32:17.398Z,42.15
2022-09-06T23:34:46.286Z,42.22
2022-09-06T23:37:13.872Z,42.43
2022-09-06T23:39:41.417Z,42.93
2022-09-06T23:42:09.135Z,42.63
2022-09-06T23:44:36.665Z,42.81
2022-09-06T23:47:04.263Z,42.66
2022-09-06T23:49:31.852Z,43.64
2022-09-06T23:52:00.752Z,43.07
2022-09-06T23:54:28.264Z,43.95
2022-09-06T23:56:55.846Z,46.55
2022-09-06T23:59:23.388Z,47.66
